Tips voor optimaal zoeken

Zoek op trefwoorden of stel een vraag
Typ een trefwoord zoals beurskoers, of stel een vraag zoals Wat is het laatste nieuws over Amerika?.
Exacte zinnen zoeken
Zet aanhalingstekens om een exacte woordcombinatie te vinden, bijvoorbeeld "Johan Cruijff ArenA".
Resultaten filteren
Na het zoeken kunt u filteren op publicatieperiode, bron, onderwerp en auteur.
Zoekopdrachten volgen
Wilt u updates ontvangen over een onderwerp? Via "Mijn nieuws" kunt u een term volgen.
Close sub menu
NASDAQ
NY-Nasdaq Composite 26.099,7742 -271,11 -1,03% 23:15
Stijgers 1 dag
Dalers 1 dag
Indices 1 dag
Moderna Inc +9,9%
Dollar Tree Inc +4,0%
Regeneron Pharmaceuticals Inc +3,1%
Apple Inc +2,6%
Gilead Sciences Inc +2,4%
Constellation Energy Corporation +2,0%
Amgen Inc +1,9%
MercadoLibre Inc +1,4%
eBay Inc +1,4%
Diamondback Energy Inc +1,3%
Meta Platforms Inc +1,1%
T Mobile US Inc +1,0%
Cadence Design Systems Inc -7,6%
CrowdStrike Holdings Inc -6,9%
Old Dominion Freight Line Inc -6,5%
Lucid Group Inc -6,2%
Synopsys Inc -5,6%
Datadog Inc -5,6%
Zscaler Inc -5,3%
Fortinet Inc -5,3%
Palo Alto Networks Inc -5,2%
Autodesk Inc -4,2%
Charter Communications Inc -4,1%
Intuit Inc -4,0%
AEX* 1.101,92--
Midkap* 1.113,80--
AMS Next 20®* 1.588,30--
FTSE100 10.789,28-0,3%
Dow Jones 52.766,88-0,8%
NASDAQ 26.099,7742-1,0%
S&P500 7.631,47-0,7%
S&P Future 7.634,750,0%
BEL20** 5.830,29-0,1%
CAC 40** 8.301,85-0,4%
DAX 25.970,11-1,1%
* real time    ** slotkoers
NaamKoersVorige+/- %1 wk1 mndDit jaar 1 jaarTijd
Adobe Inc 286,08 292,79 -2,3% +4,4% +14,2% -18,3% -19,8% 22:15
Advanced Micro Devices Inc 459,61 470,72 -2,4% -4,1% -3,5% +114,6% +182,6% 22:15
Airbnb Inc 182,55 183,22 -0,4% -4,2% +20,5% +34,5% +39,8% 22:15
Align Technology Inc 154,98 159,79 -3,0% -2,9% -8,4% -0,7% +9,2% 22:00
Alphabet Inc 332,03 335,41 -1,0% -3,3% -6,9% +5,8% +55,5% 22:15
Alphabet Inc 335,02 339,35 -1,3% -3,4% -5,9% +7,0% +57,4% 22:15
Amazon.com Inc 254,92 259,77 -1,9% -2,4% -6,1% +10,4% +11,3% 22:15
American Electric Power Company 122,96 122,43 +0,4% +0,2% -3,8% +6,6% +10,8% 22:15
Amgen Inc 438,12 429,88 +1,9% -0,9% +13,8% +33,9% +52,3% 22:15
Analog Devices Inc 354,52 362,14 -2,1% -5,1% -3,5% +30,7% +41,1% 22:15
Ansys 374,30 374,30 -- -- -4,7% +11,0% +15,2% 22:00
Apple Inc 325,13 316,85 +2,6% +4,9% +5,3% +19,6% +40,1% 22:15
Applied Materials Inc 441,85 458,39 -3,6% -8,0% -13,0% +71,9% +174,8% 22:15
ASML Holding NV 1.665,14 1.696,01 -1,8% -4,5% +2,2% +55,6% +124,2% 22:15
AstraZeneca Plc 162,47 162,13 +0,2% -4,2% -4,2% -11,6% +1,7% 22:15
Atlassian Corporation PLC 187,03 194,17 -3,7% +12,3% +85,2% +15,4% +5,2% 22:15
Autodesk Inc 247,69 258,53 -4,2% -1,4% +5,8% -16,3% -21,3% 22:15
Automatic Data Processing Inc 283,49 286,16 -0,9% +0,3% +6,4% +10,2% -6,8% 22:15
Baker Hughes Company 63,66 63,55 +0,2% +3,0% +5,2% +39,8% +40,2% 22:15
Biogen Inc 216,04 216,65 -0,3% -2,1% +6,4% +22,8% +63,4% 22:15
Booking Holdings Inc 195,69 199,09 -1,7% -8,5% +1,4% -8,6% -12,6% 22:15
Broadcom Inc 369,68 370,34 -0,2% +3,6% -5,0% +6,8% +24,3% 22:15
Cadence Design Systems Inc 313,04 338,78 -7,6% -5,7% -7,9% +0,1% -10,7% 22:15
Charter Communications Inc 146,19 152,44 -4,1% -5,8% +0,8% -30,0% -45,0% 22:15
Cintas Corporation 200,59 201,79 -0,6% -2,0% -2,0% +6,7% -4,5% 22:15
Cisco Systems Inc 109,74 110,49 -0,7% -1,2% -5,4% +42,5% +58,8% 22:15
Cognizant Technology Solutions Corp 63,39 64,58 -1,8% +0,5% +14,6% -23,6% -12,3% 22:15
Comcast Corp 26,30 26,62 -1,2% -3,0% +9,8% -12,0% -22,6% 22:15
Constellation Energy Corporation 280,31 274,77 +2,0% +0,7% +6,7% -20,7% -9,0% 22:15
Copart Inc 32,47 32,99 -1,6% -2,6% +11,5% -17,1% -33,5% 22:15
CoStar Group Inc 31,98 32,07 -0,3% -2,5% +11,2% -52,4% -64,3% 22:15
Costco Wholesale Corporation 939,96 943,89 -0,4% -2,1% -1,3% +9,0% -0,4% 22:15
CrowdStrike Holdings Inc 215,07 231,00 -6,9% +16,0% +12,7% +83,5% +103,0% 22:15
CSX Corporation 48,70 50,51 -3,6% -5,5% -3,4% +34,3% +49,8% 22:00
Datadog Inc 223,84 237,04 -5,6% +0,4% -16,5% +64,6% +63,7% 22:42
DexCom Inc 90,14 91,06 -1,0% +1,1% +8,0% +35,8% +19,6% 22:15
Diamondback Energy Inc 203,16 200,48 +1,3% +1,6% +0,1% +35,1% +36,6% 22:15
Dollar Tree Inc 131,71 126,59 +4,0% -2,1% +3,5% +7,1% +20,6% 22:15
eBay Inc 104,98 103,56 +1,4% -1,0% -7,9% +20,5% +15,9% 22:15
Electronic Arts Inc 209,70 209,70 -- -- -0,1% +2,6% +22,0% 22:15
Enphase Energy Inc 35,54 36,42 -2,4% -4,8% -5,3% +10,9% -5,7% 22:15
Exelon Corporation 43,83 43,72 +0,3% -1,1% -4,3% +0,6% +0,3% 22:15
Fastenal Company 48,75 49,31 -1,1% -3,1% +2,2% +21,5% -1,8% 22:00
Fortinet Inc 161,85 170,93 -5,3% +5,3% -0,1% +103,8% +105,5% 22:15
Gilead Sciences Inc 149,92 146,34 +2,4% +0,8% +15,1% +22,1% +32,7% 22:15
Global Foundries Inc 43,93 44,69 -1,7% -4,3% -12,1% +25,8% +31,6% 22:00
Honeywell International Inc 209,98 213,53 -1,7% -2,6% -13,6% +7,6% -4,3% 22:15
IDEXX Laboratories Inc 545,16 556,69 -2,1% -0,9% -2,5% -19,4% -15,8% 22:15
Illumina Inc 207,13 213,63 -3,0% -7,9% +1,0% +57,9% +107,2% 22:15
Intel Corporation 88,97 89,51 -0,6% +1,7% -1,4% +141,1% +265,4% 22:15
Intuit Inc 344,93 359,30 -4,0% -3,5% +9,1% -47,9% -48,3% 22:15
Intuitive Surgical Inc 369,25 376,86 -2,0% -0,7% +4,5% -34,8% -22,0% 22:15
JD com Inc 27,90 28,24 -1,2% -5,0% -15,5% -2,8% -10,2% 22:15
Keurig Dr Pepper Inc 31,89 31,86 +0,1% +0,2% +2,5% +13,9% +9,6% 22:00
KLA Corporation 170,89 175,45 -2,6% -6,8% -6,5% +40,6% +96,0% 22:15
Kraft Heinz Company 25,87 25,67 +0,8% +2,2% +0,1% +6,7% -7,5% 22:15
Lam Research Corporation 290,20 301,49 -3,7% -7,8% -1,0% +69,5% +189,8% 22:15
Lucid Group Inc 4,55 4,85 -6,2% -13,5% -38,3% -57,0% -77,0% 22:15
Lululemon Athletica Inc 118,00 120,26 -1,9% -0,3% -0,7% -43,2% -41,6% 22:15
Marriott International Inc 334,55 341,76 -2,1% -6,5% -10,3% +7,8% +24,9% 22:15
Marvell Technology Inc 210,39 211,66 -0,6% -12,5% +12,2% +147,6% +234,7% 22:15
MercadoLibre Inc 1.963,49 1.936,20 +1,4% -1,7% +4,6% -2,5% -20,6% 22:15
Meta Platforms Inc 578,54 572,34 +1,1% +1,5% +3,9% -12,4% -21,7% 22:15
Microchip Technology Inc 71,41 73,45 -2,8% -2,8% -3,9% +12,1% +9,9% 22:15
Micron Technology Inc 933,44 958,73 -2,6% +0,1% +13,4% +227,1% +684,3% 22:15
Microsoft Corporation 501,02 507,29 -1,2% +1,9% +7,8% +3,6% -1,1% 22:15
Moderna Inc 154,27 140,34 +9,9% -2,9% +181,4% +423,1% +540,4% 22:15
Mondelez International Inc 61,61 62,07 -0,7% -2,2% -1,1% +14,5% +0,3% 22:15
Monster Beverage Corporation 44,99 45,92 -2,0% -7,7% -6,6% +17,4% +44,2% 22:15
Netflix Inc 80,81 81,05 -0,3% -1,7% +12,7% -13,8% -33,1% 22:15
NVIDIA Corporation 217,44 220,78 -1,5% +2,1% +8,3% +16,6% +24,9% 22:15
NXP Semiconductors NV 222,40 224,64 -1,0% -1,0% -2,9% +2,5% -5,3% 22:15
O Reilly Automotive Inc 87,95 88,80 -1,0% -2,6% -1,6% -3,6% -15,2% 22:15
Old Dominion Freight Line Inc 187,06 199,96 -6,5% -5,7% -11,7% +19,3% +23,9% 22:00
PACCAR Inc 122,45 124,13 -1,4% -5,2% -7,7% +11,8% +22,5% 22:15
Palo Alto Networks Inc 362,09 382,13 -5,2% +6,5% +9,1% +96,6% +90,1% 22:15
Paychex Inc 125,64 127,34 -1,3% +0,5% +7,5% +12,0% -9,9% 22:15
PayPal Holdings Inc 52,40 52,67 -0,5% -15,9% -8,4% -10,2% -25,3% 22:15
PDD Holdings Inc 83,17 84,00 -1,0% -5,2% -6,1% -26,7% -30,8% 22:15
PepsiCo Inc 139,79 140,34 -0,4% -1,7% +0,2% -2,6% -6,0% 22:15
QUALCOMM Inc 166,61 170,48 -2,3% +3,8% +12,9% -2,6% +3,7% 22:15
Regeneron Pharmaceuticals Inc 823,82 799,08 +3,1% -1,2% +8,0% +6,7% +41,9% 22:15
Rivian Automotive Inc 15,54 16,06 -3,3% -7,2% +2,1% -21,2% +14,4% 22:15
Ross Stores Inc 229,24 228,54 +0,3% -5,0% -8,7% +27,3% +55,8% 22:15
Seagen 228,89 228,74 -- -- +7,2% +78,1% +78,3% 22:00
SiriusXM Holdings Inc 27,62 28,17 -2,0% -3,9% -6,8% +38,1% +16,8% 22:15
Starbucks Corporation 106,15 106,25 -0,1% +0,4% +0,9% +26,1% +20,4% 22:15
Synopsys Inc 414,82 439,59 -5,6% +1,5% +6,7% -11,7% -31,2% 22:15
T Mobile US Inc 182,16 180,44 +1,0% +0,3% +5,5% -10,3% -27,7% 22:15
Tesla Inc 356,09 367,95 -3,2% +1,7% +14,4% -20,8% +6,7% 22:15
Texas Instruments Incorporated 253,34 260,91 -2,9% -2,6% -8,1% +46,0% +25,1% 22:15
Verisk Analytics Inc 194,35 193,78 +0,3% +3,1% -0,3% -13,1% -27,5% 22:00
Vertex Pharmaceuticals Inc 547,65 544,52 +0,6% -0,9% +14,8% +20,8% +40,1% 22:15
Walgreens Boots Alliance 11,98 11,98 -- -- +0,5% +28,4% +40,6% 22:00
Warner Brothers Discovery Inc 28,32 28,53 -0,7% -2,0% +7,7% -1,7% +143,3% 22:00
Workday Inc 198,38 197,45 +0,5% +2,0% +23,7% -7,6% -14,1% 22:15
Xcel Energy Inc 75,89 75,69 +0,3% -1,7% -3,0% +2,7% +4,8% 22:15
Zoom Communications Inc 94,90 96,68 -1,8% -6,0% -1,2% +10,0% +16,6% 22:15
Zscaler Inc 178,37 188,39 -5,3% +5,9% +18,0% -20,7% -35,6% 22:15
Powered by

Schakel browser notificaties in

Schakel browser notificaties in om meldingen te ontvangen op dit apparaat.

Browser notificaties inschakelen

U heeft browser notificaties voor fd.nl eerder geweigerd. Ga naar browser instellingen en sta browser notificaties toe voor fd.nl. De precieze handelingen zijn afhankelijk van uw browser.

U volgt een onderwerp

Wanneer deze zoekterm in een artikel voorkomt, zult u deze terugvinden in Mijn nieuws onder ‘Eurobonds’.

Wilt u via de FD App meldingen ontvangen voor dit onderwerp?

Wilt u via de FD App meldingen ontvangen voor dit onderwerp?

Ons privacy statement is van toepassing.

Meldingen

Wanneer deze zoekterm in een artikel voorkomt, zult u deze terugvinden in Mijn nieuws onder ‘Eurobonds’.

Wilt u via de FD App meldingen ontvangen voor dit onderwerp?

Wilt u via de FD App meldingen ontvangen voor dit onderwerp?